Terminal Aerodrome Forecast
Issued by NWS Newport/Morehead City, NC

Home | Current Version | Previous Version | Graphics & Text | Print | Product List | Glossary On
Versions: 1 2 3 4 5 6 7 8 9 10 11 12 13 14
000
FTUS42 KMHX 271500 AAB
TAFEWN
TAF AMD
KEWN 271502Z 2715/2812 01010KT P6SM SCT040
      TEMPO 2715/2716 BKN020
     FM272300 01004KT P6SM SKC=

USA.gov is the U.S. government's official web portal to all federal, state and local government web resources and services.